createdAt,value
2018-05-02T00:02:09.019Z,7.58
2018-05-02T00:04:36.707Z,7.57
2018-05-02T00:07:04.718Z,7.55
2018-05-02T00:09:32.505Z,7.54
2018-05-02T00:12:00.102Z,7.54
2018-05-02T00:14:27.687Z,7.55
2018-05-02T00:16:55.292Z,7.54
2018-05-02T00:19:22.976Z,7.56
2018-05-02T00:21:50.815Z,7.56
2018-05-02T00:24:18.618Z,7.55
2018-05-02T00:26:46.373Z,7.54
2018-05-02T00:29:14.072Z,7.57
2018-05-02T00:31:41.647Z,7.57
2018-05-02T00:34:09.315Z,7.51
2018-05-02T00:36:36.843Z,7.49
2018-05-02T00:39:04.495Z,7.52
2018-05-02T00:41:32.094Z,7.50
2018-05-02T00:43:59.640Z,7.47
2018-05-02T00:46:27.329Z,7.45
2018-05-02T00:49:07.064Z,7.44
2018-05-02T00:51:34.981Z,7.41
2018-05-02T00:54:02.623Z,7.41
2018-05-02T00:56:30.470Z,7.41
2018-05-02T00:58:58.391Z,7.38
2018-05-02T01:01:26.126Z,7.39
2018-05-02T01:03:53.767Z,7.37
2018-05-02T01:06:21.333Z,7.33
2018-05-02T01:08:49.211Z,7.30
2018-05-02T01:11:16.871Z,7.27
2018-05-02T01:13:44.484Z,7.26
2018-05-02T01:16:12.091Z,7.26
2018-05-02T01:18:39.737Z,7.25
2018-05-02T01:21:07.347Z,7.21
2018-05-02T01:23:35.028Z,7.21
2018-05-02T01:26:02.624Z,7.15
2018-05-02T01:28:30.192Z,7.14
2018-05-02T01:30:57.747Z,7.10
2018-05-02T01:33:25.436Z,7.07
2018-05-02T01:35:53.254Z,7.05
2018-05-02T01:38:20.829Z,7.04
2018-05-02T01:40:48.380Z,7.02
2018-05-02T01:43:16.135Z,6.99
2018-05-02T01:45:43.674Z,6.99
2018-05-02T01:48:11.451Z,6.97
2018-05-02T01:50:39.022Z,6.94
2018-05-02T01:53:06.737Z,6.93
2018-05-02T01:55:34.430Z,6.93
2018-05-02T01:58:01.994Z,6.92
2018-05-02T02:00:29.787Z,6.89
2018-05-02T02:02:57.454Z,6.86
2018-05-02T02:05:25.280Z,6.85
2018-05-02T02:07:52.862Z,6.83
2018-05-02T02:10:20.698Z,6.80
2018-05-02T02:12:48.279Z,6.81
2018-05-02T02:15:15.822Z,6.79
2018-05-02T02:17:43.431Z,6.78
2018-05-02T02:20:10.976Z,6.75
2018-05-02T02:22:38.660Z,6.72
2018-05-02T02:25:06.376Z,6.68
2018-05-02T02:27:33.939Z,6.66
2018-05-02T02:30:01.722Z,6.66
2018-05-02T02:32:29.487Z,6.63
2018-05-02T02:34:57.029Z,6.60
2018-05-02T02:37:24.586Z,6.57
2018-05-02T02:39:52.196Z,6.55
2018-05-02T02:42:19.749Z,6.52
2018-05-02T02:44:48.293Z,6.49
2018-05-02T02:47:16.010Z,6.47
2018-05-02T02:49:43.583Z,6.45
2018-05-02T02:52:11.275Z,6.41
2018-05-02T02:54:39.115Z,6.39
2018-05-02T02:57:06.852Z,6.38
2018-05-02T02:59:34.434Z,6.36
2018-05-02T03:02:03.499Z,6.36
2018-05-02T03:04:31.142Z,6.31
2018-05-02T03:06:58.774Z,6.30
2018-05-02T03:09:26.419Z,6.28
2018-05-02T03:11:58.843Z,6.26
2018-05-02T03:14:26.465Z,6.25
2018-05-02T03:16:54.182Z,6.22
2018-05-02T03:19:22.262Z,6.22
2018-05-02T03:21:50.120Z,6.20
2018-05-02T03:24:17.716Z,6.20
2018-05-02T03:26:45.289Z,6.18
2018-05-02T03:29:12.936Z,6.16
2018-05-02T03:31:40.481Z,6.15
2018-05-02T03:34:08.231Z,6.11
2018-05-02T03:36:35.927Z,6.10
2018-05-02T03:39:03.596Z,6.11
2018-05-02T03:41:31.179Z,6.08
2018-05-02T03:43:58.730Z,6.06
2018-05-02T03:46:26.528Z,6.07
2018-05-02T03:48:54.492Z,6.05
2018-05-02T03:51:22.145Z,6.01
2018-05-02T03:53:49.717Z,6.01
2018-05-02T03:56:17.305Z,5.98
2018-05-02T03:58:45.096Z,5.97
2018-05-02T04:01:24.830Z,5.95
2018-05-02T04:04:04.298Z,5.95
2018-05-02T04:09:39.234Z,5.93
2018-05-02T04:12:06.859Z,5.91
2018-05-02T04:14:34.463Z,5.90
2018-05-02T04:17:02.112Z,5.92
2018-05-02T04:19:29.790Z,5.93
2018-05-02T04:21:57.633Z,5.93
2018-05-02T04:24:25.695Z,5.94
2018-05-02T04:26:53.561Z,5.96
2018-05-02T04:29:21.162Z,5.95
2018-05-02T04:31:49.209Z,5.92
2018-05-02T04:34:16.764Z,5.93
2018-05-02T04:36:44.466Z,5.92
2018-05-02T04:39:12.260Z,5.92
2018-05-02T04:41:39.884Z,5.89
2018-05-02T04:44:07.702Z,5.92
2018-05-02T04:46:35.409Z,5.91
2018-05-02T04:49:03.080Z,5.94
2018-05-02T04:51:30.672Z,5.97
2018-05-02T04:53:58.507Z,6.00
2018-05-02T04:56:26.564Z,6.01
2018-05-02T04:58:54.420Z,6.04
2018-05-02T05:01:21.989Z,6.06
2018-05-02T05:03:49.638Z,6.11
2018-05-02T05:06:17.188Z,6.13
2018-05-02T05:08:45.288Z,6.16
2018-05-02T05:11:12.923Z,6.19
2018-05-02T05:13:40.712Z,6.23
2018-05-02T05:16:08.360Z,6.25
2018-05-02T05:18:36.194Z,6.30
2018-05-02T05:21:03.835Z,6.35
2018-05-02T05:23:31.472Z,6.41
2018-05-02T05:25:59.262Z,6.47
2018-05-02T05:28:27.070Z,6.52
2018-05-02T05:30:54.790Z,6.57
2018-05-02T05:33:22.383Z,6.66
2018-05-02T05:35:50.110Z,6.69
2018-05-02T05:38:17.946Z,6.76
2018-05-02T05:40:45.736Z,6.85
2018-05-02T05:43:13.609Z,6.89
2018-05-02T05:45:41.195Z,6.96
2018-05-02T05:48:09.278Z,7.07
2018-05-02T05:50:36.913Z,7.13
2018-05-02T05:53:04.561Z,7.21
2018-05-02T05:55:32.269Z,7.29
2018-05-02T05:57:59.943Z,7.38
2018-05-02T06:00:27.518Z,7.48
2018-05-02T06:02:55.347Z,7.59
2018-05-02T06:05:24.224Z,7.69
2018-05-02T06:07:51.809Z,7.83
2018-05-02T06:10:19.889Z,7.94
2018-05-02T06:12:47.524Z,8.08
2018-05-02T06:15:15.078Z,8.19
2018-05-02T06:17:42.897Z,8.30
2018-05-02T06:20:10.529Z,8.40
2018-05-02T06:22:38.517Z,8.53
2018-05-02T06:25:06.099Z,8.64
2018-05-02T06:27:33.697Z,8.74
2018-05-02T06:30:01.339Z,8.82
2018-05-02T06:32:28.906Z,8.89
2018-05-02T06:34:57.324Z,8.94
2018-05-02T06:37:25.028Z,9.03
2018-05-02T06:39:52.967Z,9.10
2018-05-02T06:42:21.691Z,9.19
2018-05-02T06:44:49.444Z,9.27
2018-05-02T06:47:17.327Z,9.33
2018-05-02T06:49:44.875Z,9.39
2018-05-02T06:52:12.921Z,9.49
2018-05-02T06:54:40.778Z,9.55
2018-05-02T06:57:08.690Z,9.64
2018-05-02T06:59:36.562Z,9.75
2018-05-02T07:02:04.180Z,9.89
2018-05-02T07:04:32.177Z,10.00
2018-05-02T07:06:59.757Z,10.14
2018-05-02T07:09:27.375Z,10.21
2018-05-02T07:11:55.065Z,10.32
2018-05-02T07:14:22.728Z,10.43
2018-05-02T07:16:50.286Z,10.56
2018-05-02T07:19:18.113Z,10.65
2018-05-02T07:21:45.751Z,10.79
2018-05-02T07:24:13.684Z,10.92
2018-05-02T07:26:41.239Z,11.08
2018-05-02T07:29:08.784Z,11.16
2018-05-02T07:31:36.367Z,11.25
2018-05-02T07:34:03.928Z,11.33
2018-05-02T07:36:31.502Z,11.47
2018-05-02T07:38:59.342Z,11.68
2018-05-02T07:41:26.965Z,11.84
2018-05-02T07:43:54.535Z,11.95
2018-05-02T07:46:22.818Z,12.09
2018-05-02T07:48:50.533Z,12.23
2018-05-02T07:51:18.103Z,12.38
2018-05-02T07:53:45.776Z,12.39
2018-05-02T07:56:13.589Z,12.51
2018-05-02T07:58:41.156Z,12.55
2018-05-02T08:01:08.746Z,12.63
2018-05-02T08:03:36.300Z,12.75
2018-05-02T08:06:03.909Z,12.87
2018-05-02T08:08:31.495Z,12.99
2018-05-02T08:10:59.082Z,13.02
2018-05-02T08:13:26.670Z,13.19
2018-05-02T08:15:54.466Z,13.38
2018-05-02T08:18:22.554Z,13.53
2018-05-02T08:20:50.355Z,13.71
2018-05-02T08:23:17.979Z,13.65
2018-05-02T08:25:45.627Z,13.72
2018-05-02T08:28:13.557Z,13.79
2018-05-02T08:30:41.107Z,13.92
2018-05-02T08:33:08.655Z,14.04
2018-05-02T08:35:36.471Z,14.09
2018-05-02T08:38:04.090Z,14.18
2018-05-02T08:40:32.032Z,14.25
2018-05-02T08:42:59.592Z,14.26
2018-05-02T08:45:27.394Z,14.25
2018-05-02T08:47:55.227Z,14.31
2018-05-02T08:50:22.887Z,14.41
2018-05-02T08:52:50.494Z,14.64
2018-05-02T08:55:18.126Z,14.64
2018-05-02T08:57:45.758Z,14.71
2018-05-02T09:00:13.969Z,14.96
2018-05-02T09:02:41.523Z,15.06
2018-05-02T09:05:09.079Z,15.03
2018-05-02T09:07:36.656Z,15.05
2018-05-02T09:10:04.584Z,15.07
2018-05-02T09:12:32.214Z,15.28
2018-05-02T09:14:59.766Z,15.46
2018-05-02T09:17:27.346Z,15.59
2018-05-02T09:19:54.925Z,15.78
2018-05-02T09:22:22.753Z,15.81
2018-05-02T09:24:50.582Z,15.87
2018-05-02T09:27:18.469Z,15.86
2018-05-02T09:29:46.096Z,15.92
2018-05-02T09:32:13.699Z,16.03
2018-05-02T09:34:41.295Z,16.28
2018-05-02T09:37:08.956Z,16.55
2018-05-02T09:39:36.577Z,16.75
2018-05-02T09:42:04.167Z,16.89
2018-05-02T09:44:31.952Z,16.85
2018-05-02T09:46:59.732Z,16.74
2018-05-02T09:49:27.660Z,16.72
2018-05-02T09:51:55.222Z,16.87
2018-05-02T09:54:22.808Z,17.15
2018-05-02T09:56:50.433Z,17.38
2018-05-02T09:59:18.013Z,17.49
2018-05-02T10:01:45.783Z,17.28
2018-05-02T10:04:13.405Z,17.13
2018-05-02T10:06:40.961Z,17.30
2018-05-02T10:09:08.561Z,17.50
2018-05-02T10:11:36.108Z,17.58
2018-05-02T10:14:03.669Z,17.65
2018-05-02T10:16:31.252Z,17.82
2018-05-02T10:18:59.041Z,17.97
2018-05-02T10:21:26.682Z,18.17
2018-05-02T10:23:54.236Z,18.23
2018-05-02T10:26:22.154Z,18.31
2018-05-02T10:28:49.769Z,18.52
2018-05-02T10:31:17.545Z,18.47
2018-05-02T10:33:45.522Z,18.32
2018-05-02T10:36:13.143Z,18.16
2018-05-02T10:38:41.009Z,17.97
2018-05-02T10:41:08.653Z,17.92
2018-05-02T10:43:36.218Z,17.99
2018-05-02T10:46:03.869Z,18.28
2018-05-02T10:48:31.423Z,18.44
2018-05-02T10:50:59.011Z,18.77
2018-05-02T10:53:26.613Z,18.77
2018-05-02T10:55:54.220Z,18.87
2018-05-02T10:58:21.837Z,18.71
2018-05-02T11:00:49.807Z,18.42
2018-05-02T11:03:17.486Z,18.48
2018-05-02T11:05:45.047Z,18.49
2018-05-02T11:08:12.601Z,18.50
2018-05-02T11:10:40.514Z,18.68
2018-05-02T11:13:08.311Z,18.91
2018-05-02T11:15:35.860Z,19.03
2018-05-02T11:18:03.444Z,18.98
2018-05-02T11:20:31.014Z,18.99
2018-05-02T11:22:58.697Z,18.90
2018-05-02T11:25:26.515Z,18.91
2018-05-02T11:27:54.113Z,19.19
2018-05-02T11:30:21.912Z,19.42
2018-05-02T11:32:49.597Z,19.50
2018-05-02T11:35:17.171Z,19.59
2018-05-02T11:37:44.820Z,19.83
2018-05-02T11:40:12.426Z,19.95
2018-05-02T11:42:39.966Z,20.06
2018-05-02T11:45:07.760Z,20.19
2018-05-02T11:47:35.339Z,20.43
2018-05-02T11:50:02.958Z,20.50
2018-05-02T11:52:30.591Z,20.66
2018-05-02T11:54:58.141Z,20.70
2018-05-02T11:57:25.827Z,20.27
2018-05-02T11:59:53.387Z,20.52
2018-05-02T12:02:20.943Z,20.42
2018-05-02T12:04:48.528Z,20.65
2018-05-02T12:07:16.325Z,20.97
2018-05-02T12:09:43.933Z,21.12
2018-05-02T12:12:11.499Z,21.31
2018-05-02T12:14:39.128Z,21.61
2018-05-02T12:17:06.787Z,21.66
2018-05-02T12:19:34.376Z,21.29
2018-05-02T12:22:02.184Z,21.27
2018-05-02T12:24:29.752Z,21.44
2018-05-02T12:26:57.326Z,21.17
2018-05-02T12:29:24.973Z,21.23
2018-05-02T12:31:52.868Z,21.09
2018-05-02T12:34:20.448Z,20.86
2018-05-02T12:36:47.997Z,20.78
2018-05-02T12:39:15.852Z,20.81
2018-05-02T12:41:43.454Z,21.13
2018-05-02T12:44:11.007Z,21.14
2018-05-02T12:46:38.646Z,21.40
2018-05-02T12:49:06.166Z,21.62
2018-05-02T12:51:33.711Z,21.98
2018-05-02T12:54:01.327Z,22.27
2018-05-02T12:56:28.877Z,22.44
2018-05-02T12:58:56.457Z,22.63
2018-05-02T13:01:24.352Z,22.79
2018-05-02T13:03:51.942Z,22.92
2018-05-02T13:06:19.882Z,22.90
2018-05-02T13:08:47.430Z,22.80
2018-05-02T13:11:14.974Z,22.81
2018-05-02T13:13:42.650Z,22.71
2018-05-02T13:16:10.199Z,22.78
2018-05-02T13:18:37.994Z,22.94
2018-05-02T13:21:05.635Z,23.28
2018-05-02T13:23:33.151Z,23.41
2018-05-02T13:26:00.872Z,23.54
2018-05-02T13:28:28.652Z,23.53
2018-05-02T13:30:56.341Z,23.42
2018-05-02T13:33:23.893Z,23.24
2018-05-02T13:35:51.677Z,23.15
2018-05-02T13:38:19.251Z,23.00
2018-05-02T13:40:46.803Z,23.07
2018-05-02T13:43:14.405Z,23.22
2018-05-02T13:45:41.955Z,23.28
2018-05-02T13:48:09.742Z,23.57
2018-05-02T13:50:37.391Z,23.58
2018-05-02T13:53:05.264Z,23.40
2018-05-02T13:55:32.838Z,23.26
2018-05-02T13:58:00.456Z,23.20
2018-05-02T14:00:28.003Z,23.03
2018-05-02T14:02:55.547Z,23.04
2018-05-02T14:05:23.357Z,23.30
2018-05-02T14:07:51.105Z,23.23
2018-05-02T14:10:18.713Z,23.27
2018-05-02T14:12:46.330Z,23.53
2018-05-02T14:15:13.977Z,23.98
2018-05-02T14:17:41.595Z,24.07
2018-05-02T14:20:09.174Z,24.08
2018-05-02T14:22:36.729Z,24.25
2018-05-02T14:25:04.334Z,24.49
2018-05-02T14:27:31.931Z,24.62
2018-05-02T14:29:59.722Z,24.35
2018-05-02T14:32:27.433Z,24.15
2018-05-02T14:34:55.059Z,24.03
2018-05-02T14:37:22.612Z,23.97
2018-05-02T14:39:50.178Z,23.85
2018-05-02T14:42:18.198Z,23.83
2018-05-02T14:44:45.817Z,23.70
2018-05-02T14:47:13.365Z,23.81
2018-05-02T14:49:41.016Z,23.66
2018-05-02T14:52:08.562Z,23.41
2018-05-02T14:54:36.193Z,23.57
2018-05-02T14:57:03.967Z,23.86
2018-05-02T14:59:31.610Z,24.15
2018-05-02T15:01:59.172Z,24.23
2018-05-02T15:04:26.953Z,24.39
2018-05-02T15:06:54.491Z,24.37
2018-05-02T15:09:22.132Z,24.18
2018-05-02T15:11:50.511Z,24.04
2018-05-02T15:14:18.055Z,24.13
2018-05-02T15:16:45.597Z,24.33
2018-05-02T15:19:13.242Z,24.30
2018-05-02T15:21:40.809Z,24.26
2018-05-02T15:24:08.435Z,24.14
2018-05-02T15:26:36.068Z,24.08
2018-05-02T15:29:03.631Z,23.65
2018-05-02T15:31:31.185Z,23.56
2018-05-02T15:33:58.764Z,23.62
2018-05-02T15:36:26.315Z,23.80
2018-05-02T15:38:53.963Z,23.81
2018-05-02T15:41:21.590Z,23.88
2018-05-02T15:43:49.669Z,23.80
2018-05-02T15:46:17.236Z,23.54
2018-05-02T15:48:44.812Z,23.58
2018-05-02T15:51:12.402Z,23.33
2018-05-02T15:53:39.980Z,23.21
2018-05-02T15:56:07.626Z,23.26
2018-05-02T15:58:35.271Z,23.13
2018-05-02T16:01:02.850Z,22.90
2018-05-02T16:03:30.471Z,22.84
2018-05-02T16:05:58.051Z,22.56
2018-05-02T16:08:25.634Z,22.47
2018-05-02T16:10:53.430Z,22.23
2018-05-02T16:13:21.034Z,22.24
2018-05-02T16:15:48.591Z,22.24
2018-05-02T16:18:16.156Z,22.23
2018-05-02T16:20:44.170Z,22.11
2018-05-02T16:23:11.832Z,21.83
2018-05-02T16:25:39.462Z,21.69
2018-05-02T16:28:07.066Z,21.56
2018-05-02T16:30:34.627Z,21.60
2018-05-02T16:33:02.435Z,21.70
2018-05-02T16:35:30.131Z,21.82
2018-05-02T16:37:57.692Z,21.84
2018-05-02T16:40:25.235Z,21.89
2018-05-02T16:42:52.841Z,21.97
2018-05-02T16:45:20.389Z,21.84
2018-05-02T16:47:48.207Z,21.78
2018-05-02T16:50:16.751Z,21.72
2018-05-02T16:52:44.367Z,21.60
2018-05-02T16:55:11.929Z,21.40
2018-05-02T16:57:39.611Z,21.35
2018-05-02T17:00:07.169Z,21.17
2018-05-02T17:02:34.721Z,21.19
2018-05-02T17:05:02.315Z,21.19
2018-05-02T17:07:29.937Z,21.12
2018-05-02T17:09:57.755Z,21.09
2018-05-02T17:12:25.301Z,21.08
2018-05-02T17:14:52.979Z,21.11
2018-05-02T17:17:20.538Z,21.12
2018-05-02T17:19:48.091Z,21.17
2018-05-02T17:22:15.697Z,21.24
2018-05-02T17:24:43.264Z,21.12
2018-05-02T17:27:10.948Z,21.04
2018-05-02T17:29:38.504Z,20.83
2018-05-02T17:32:06.070Z,20.67
2018-05-02T17:34:33.840Z,20.60
2018-05-02T17:37:01.814Z,20.55
2018-05-02T17:39:29.371Z,20.51
2018-05-02T17:41:57.052Z,20.51
2018-05-02T17:44:24.550Z,20.52
2018-05-02T17:46:52.098Z,20.59
2018-05-02T17:49:20.121Z,20.59
2018-05-02T17:51:47.668Z,20.62
2018-05-02T17:54:15.222Z,20.62
2018-05-02T17:56:42.802Z,20.61
2018-05-02T17:59:10.388Z,20.53
2018-05-02T18:01:37.972Z,20.45
2018-05-02T18:04:05.584Z,20.42
2018-05-02T18:06:33.167Z,20.39
2018-05-02T18:09:00.715Z,20.32
2018-05-02T18:11:28.328Z,20.14
2018-05-02T18:14:01.905Z,20.01
2018-05-02T18:16:29.588Z,19.92
2018-05-02T18:18:57.147Z,19.91
2018-05-02T18:21:24.748Z,19.86
2018-05-02T18:23:52.329Z,19.81
2018-05-02T18:26:19.946Z,19.77
2018-05-02T18:28:47.521Z,19.71
2018-05-02T18:31:15.307Z,19.66
2018-05-02T18:33:42.915Z,19.64
2018-05-02T18:36:10.505Z,19.61
2018-05-02T18:38:38.054Z,19.57
2018-05-02T18:41:05.637Z,19.49
2018-05-02T18:43:33.191Z,19.46
2018-05-02T18:46:00.842Z,19.44
2018-05-02T18:48:28.399Z,19.40
2018-05-02T18:50:56.244Z,19.34
2018-05-02T18:53:23.809Z,19.26
2018-05-02T18:55:51.399Z,19.20
2018-05-02T18:58:19.230Z,19.12
2018-05-02T19:00:46.782Z,19.01
2018-05-02T19:03:14.331Z,18.91
2018-05-02T19:05:42.004Z,18.83
2018-05-02T19:08:09.546Z,18.74
2018-05-02T19:10:37.191Z,18.64
2018-05-02T19:13:04.874Z,18.52
2018-05-02T19:15:32.462Z,18.43
2018-05-02T19:18:05.673Z,18.30
2018-05-02T19:20:36.126Z,18.22
2018-05-02T19:23:03.711Z,18.16
2018-05-02T19:25:36.840Z,18.08
2018-05-02T19:28:04.771Z,17.98
2018-05-02T19:30:32.319Z,17.87
2018-05-02T19:33:05.411Z,17.76
2018-05-02T19:35:33.091Z,17.66
2018-05-02T19:38:00.623Z,17.58
2018-05-02T19:40:33.669Z,17.49
2018-05-02T19:43:06.796Z,17.37
2018-05-02T19:45:34.770Z,17.27
2018-05-02T19:48:02.311Z,17.20
2018-05-02T19:50:29.935Z,17.10
2018-05-02T19:52:57.844Z,17.02
2018-05-02T19:55:25.388Z,16.97
2018-05-02T19:57:52.932Z,16.86
2018-05-02T20:00:25.975Z,16.70
2018-05-02T20:02:59.236Z,16.58
2018-05-02T20:05:26.815Z,16.48
2018-05-02T20:07:54.607Z,16.37
2018-05-02T20:10:28.413Z,16.29
2018-05-02T20:13:02.111Z,16.22
2018-05-02T20:15:29.814Z,16.16
2018-05-02T20:17:57.590Z,16.08
2018-05-02T20:20:25.156Z,16.00
2018-05-02T20:22:52.835Z,15.94
2018-05-02T20:25:20.442Z,15.89
2018-05-02T20:27:48.090Z,15.86
2018-05-02T20:30:15.671Z,15.82
2018-05-02T20:32:43.214Z,15.77
2018-05-02T20:35:10.787Z,15.74
2018-05-02T20:37:38.335Z,15.74
2018-05-02T20:40:06.319Z,15.73
2018-05-02T20:42:33.886Z,15.73
2018-05-02T20:45:01.431Z,15.73
2018-05-02T20:47:29.035Z,15.72
2018-05-02T20:49:56.585Z,15.71
2018-05-02T20:52:24.575Z,15.64
2018-05-02T20:54:52.439Z,15.55
2018-05-02T20:57:19.958Z,15.46
2018-05-02T20:59:47.552Z,15.42
2018-05-02T21:02:15.111Z,15.38
2018-05-02T21:04:42.962Z,15.35
2018-05-02T21:07:10.540Z,15.35
2018-05-02T21:09:38.651Z,15.36
2018-05-02T21:12:06.216Z,15.37
2018-05-02T21:14:33.876Z,15.35
2018-05-02T21:17:01.817Z,15.30
2018-05-02T21:19:29.365Z,15.23
2018-05-02T21:21:56.906Z,15.14
2018-05-02T21:24:24.900Z,15.06
2018-05-02T21:26:52.467Z,14.97
2018-05-02T21:29:20.012Z,14.92
2018-05-02T21:31:47.625Z,14.89
2018-05-02T21:34:15.410Z,14.87
2018-05-02T21:36:43.039Z,14.89
2018-05-02T21:39:10.986Z,14.89
2018-05-02T21:41:38.531Z,14.88
2018-05-02T21:44:06.093Z,14.84
2018-05-02T21:46:33.661Z,14.85
2018-05-02T21:49:01.287Z,14.83
2018-05-02T21:51:28.908Z,14.82
2018-05-02T21:53:56.479Z,14.79
2018-05-02T21:56:24.080Z,14.77
2018-05-02T21:58:51.735Z,14.73
2018-05-02T22:01:19.709Z,14.75
2018-05-02T22:03:47.418Z,14.74
2018-05-02T22:06:14.999Z,14.73
2018-05-02T22:08:42.873Z,14.72
2018-05-02T22:11:10.688Z,14.70
2018-05-02T22:13:38.756Z,14.68
2018-05-02T22:16:06.925Z,14.64
2018-05-02T22:18:34.966Z,14.60
2018-05-02T22:21:02.960Z,14.56
2018-05-02T22:23:30.830Z,14.53
2018-05-02T22:25:58.999Z,14.50
2018-05-02T22:28:26.587Z,14.46
2018-05-02T22:30:54.374Z,14.44
2018-05-02T22:33:22.332Z,14.37
2018-05-02T22:35:50.140Z,14.33
2018-05-02T22:38:17.842Z,14.28
2018-05-02T22:40:45.630Z,14.21
2018-05-02T22:43:13.290Z,14.13
2018-05-02T22:45:40.886Z,14.10
2018-05-02T22:48:08.440Z,14.07
2018-05-02T22:50:35.997Z,14.03
2018-05-02T22:53:03.584Z,14.02
2018-05-02T22:55:31.210Z,13.98
2018-05-02T22:57:59.250Z,13.92
2018-05-02T23:00:26.808Z,13.90
2018-05-02T23:02:54.355Z,13.87
2018-05-02T23:05:22.012Z,13.86
2018-05-02T23:07:49.873Z,13.82
2018-05-02T23:10:17.427Z,13.80
2018-05-02T23:12:45.252Z,13.76
2018-05-02T23:15:13.847Z,13.76
2018-05-02T23:17:41.393Z,13.72
2018-05-02T23:20:09.046Z,13.72
2018-05-02T23:22:36.743Z,13.61
2018-05-02T23:25:04.309Z,13.64
2018-05-02T23:27:31.894Z,13.62
2018-05-02T23:29:59.462Z,13.56
2018-05-02T23:32:27.093Z,13.57
2018-05-02T23:34:54.692Z,13.52
2018-05-02T23:37:22.244Z,13.53
2018-05-02T23:39:49.800Z,13.47
2018-05-02T23:42:17.399Z,13.51
2018-05-02T23:44:44.966Z,13.48
2018-05-02T23:47:12.732Z,13.49
2018-05-02T23:49:40.349Z,13.47
2018-05-02T23:52:07.908Z,13.44
2018-05-02T23:54:35.509Z,13.40
2018-05-02T23:57:03.091Z,13.33
2018-05-02T23:59:30.778Z,13.34
